Terminal Aerodrome Forecast
Issued by NWS

Home | Current Version | Previous Version | Text Only | Print | Product List | Glossary On
Versions: 1 2 3 4 5 6 7 8 9 10 11 12 13 14 15
812
FTUS46 KMTR 242320
TAFOAK
TAF
KOAK 242320Z 2500/2606 24009KT P6SM FEW010 SCT200
     FM250600 25006KT P6SM BKN060
     FM250900 VRB04KT P6SM BKN030 BKN100
     FM251100 VRB03KT P6SM SCT050
     FM251800 15004KT P6SM BKN100
     FM252100 09006KT P6SM BKN150
     FM260000 32007KT P6SM -RA OVC060=

USA.gov is the U.S. government's official web portal to all federal, state and local government web resources and services.